createdAt,value
2018-07-08T00:01:45.233Z,17.63
2018-07-08T00:04:14.453Z,17.52
2018-07-08T00:06:43.652Z,17.37
2018-07-08T00:09:13.204Z,17.24
2018-07-08T00:11:42.445Z,17.26
2018-07-08T00:14:11.847Z,17.26
2018-07-08T00:16:41.064Z,17.20
2018-07-08T00:19:10.331Z,17.00
2018-07-08T00:21:39.820Z,16.60
2018-07-08T00:24:09.041Z,17.01
2018-07-08T00:26:38.190Z,16.85
2018-07-08T00:29:07.401Z,16.86
2018-07-08T00:31:36.637Z,16.86
2018-07-08T00:34:06.069Z,16.83
2018-07-08T00:36:35.281Z,16.86
2018-07-08T00:39:05.484Z,16.79
2018-07-08T00:41:34.704Z,16.72
2018-07-08T00:44:03.937Z,16.75
2018-07-08T00:46:33.119Z,14.84
2018-07-08T00:49:02.333Z,16.71
2018-07-08T00:51:31.630Z,16.80
2018-07-08T00:54:01.372Z,16.69
2018-07-08T00:56:30.629Z,16.66
2018-07-08T00:58:59.866Z,16.70
2018-07-08T01:01:29.228Z,16.63
2018-07-08T01:03:58.579Z,16.61
2018-07-08T01:06:27.819Z,16.58
2018-07-08T01:08:57.080Z,16.23
2018-07-08T01:11:26.295Z,16.28
2018-07-08T01:13:55.554Z,16.33
2018-07-08T01:16:24.805Z,16.43
2018-07-08T01:18:54.133Z,16.50
2018-07-08T01:21:23.316Z,16.52
2018-07-08T01:23:52.535Z,16.46
2018-07-08T01:26:21.934Z,16.42
2018-07-08T01:28:51.217Z,16.29
2018-07-08T01:31:20.359Z,16.26
2018-07-08T01:33:49.652Z,16.20
2018-07-08T01:36:18.848Z,16.22
2018-07-08T01:38:48.135Z,16.20
2018-07-08T01:41:17.434Z,16.20
2018-07-08T01:43:46.722Z,16.23
2018-07-08T01:46:15.873Z,16.10
2018-07-08T01:48:45.093Z,16.13
2018-07-08T01:51:14.248Z,16.11
2018-07-08T01:53:43.533Z,15.83
2018-07-08T01:56:13.083Z,15.76
2018-07-08T01:58:42.860Z,15.78
2018-07-08T02:01:12.041Z,15.76
2018-07-08T02:03:41.261Z,15.65
2018-07-08T02:06:11.409Z,15.61
2018-07-08T02:08:40.677Z,15.64
2018-07-08T02:11:09.888Z,15.64
2018-07-08T02:13:39.198Z,15.63
2018-07-08T02:16:08.461Z,15.64
2018-07-08T02:18:37.732Z,15.57
2018-07-08T02:21:07.056Z,15.58
2018-07-08T02:23:36.270Z,15.67
2018-07-08T02:26:05.780Z,15.68
2018-07-08T02:28:34.981Z,15.67
2018-07-08T02:31:04.324Z,15.68
2018-07-08T02:33:33.646Z,15.69
2018-07-08T02:36:03.078Z,15.71
2018-07-08T02:38:32.344Z,15.72
2018-07-08T02:41:01.635Z,15.75
2018-07-08T02:43:30.938Z,15.69
2018-07-08T02:46:00.515Z,15.63
2018-07-08T02:48:29.859Z,15.64
2018-07-08T02:50:59.072Z,15.68
2018-07-08T02:53:28.333Z,15.60
2018-07-08T02:55:57.497Z,15.63
2018-07-08T02:58:26.724Z,15.63
2018-07-08T03:00:56.074Z,10.00
2018-07-08T03:03:25.877Z,15.64
2018-07-08T03:05:55.165Z,15.63
2018-07-08T03:08:24.353Z,15.68
2018-07-08T03:10:53.525Z,15.68
2018-07-08T03:13:22.758Z,15.66
2018-07-08T03:15:52.926Z,15.59
2018-07-08T03:18:22.109Z,15.49
2018-07-08T03:20:51.297Z,15.25
2018-07-08T03:23:20.521Z,14.99
2018-07-08T03:25:49.708Z,14.95
2018-07-08T03:28:18.961Z,14.92
2018-07-08T03:30:48.205Z,14.96
2018-07-08T03:33:17.420Z,14.80
2018-07-08T03:35:46.614Z,14.79
2018-07-08T03:38:15.758Z,14.78
2018-07-08T03:40:45.025Z,14.76
2018-07-08T03:43:14.180Z,14.69
2018-07-08T03:45:43.424Z,14.61
2018-07-08T03:48:12.692Z,14.57
2018-07-08T03:50:42.025Z,14.56
2018-07-08T03:53:11.225Z,14.71
2018-07-08T03:55:40.380Z,14.77
2018-07-08T03:58:09.618Z,14.79
2018-07-08T04:00:38.772Z,14.81
2018-07-08T04:03:08.025Z,14.78
2018-07-08T04:05:37.384Z,14.73
2018-07-08T04:08:06.620Z,14.73
2018-07-08T04:10:35.780Z,14.83
2018-07-08T04:13:04.973Z,14.92
2018-07-08T04:15:34.171Z,14.96
2018-07-08T04:18:07.979Z,15.15
2018-07-08T04:20:38.372Z,15.17
2018-07-08T04:23:07.960Z,15.24
2018-07-08T04:25:37.212Z,15.38
2018-07-08T04:28:06.446Z,15.54
2018-07-08T04:30:35.625Z,15.41
2018-07-08T04:33:04.820Z,15.36
2018-07-08T04:35:34.101Z,15.42
2018-07-08T04:38:03.528Z,15.46
2018-07-08T04:40:32.733Z,15.70
2018-07-08T04:43:01.936Z,15.58
2018-07-08T04:45:31.145Z,15.66
2018-07-08T04:48:00.322Z,15.64
2018-07-08T04:50:29.500Z,15.68
2018-07-08T04:52:58.669Z,15.75
2018-07-08T04:55:28.077Z,15.70
2018-07-08T04:57:57.332Z,15.81
2018-07-08T05:00:26.534Z,15.75
2018-07-08T05:02:55.664Z,15.69
2018-07-08T05:05:24.856Z,15.63
2018-07-08T05:07:54.085Z,15.58
2018-07-08T05:10:23.280Z,15.90
2018-07-08T05:12:52.445Z,15.97
2018-07-08T05:15:21.684Z,16.32
2018-07-08T05:17:50.865Z,16.45
2018-07-08T05:20:20.071Z,16.73
2018-07-08T05:22:49.237Z,16.87
2018-07-08T05:25:18.685Z,17.12
2018-07-08T05:27:47.845Z,17.12
2018-07-08T05:30:17.176Z,17.57
2018-07-08T05:32:46.353Z,17.83
2018-07-08T05:35:15.537Z,18.37
2018-07-08T05:37:44.733Z,18.26
2018-07-08T05:40:13.964Z,18.39
2018-07-08T05:42:43.121Z,18.38
2018-07-08T05:45:12.365Z,18.84
2018-07-08T05:47:41.636Z,18.53
2018-07-08T05:50:10.986Z,18.52
2018-07-08T05:52:40.142Z,18.93
2018-07-08T05:55:09.472Z,19.23
2018-07-08T05:57:38.617Z,19.09
2018-07-08T06:00:08.191Z,18.53
2018-07-08T06:02:37.345Z,18.64
2018-07-08T06:05:06.729Z,18.68
2018-07-08T06:07:36.261Z,18.55
2018-07-08T06:10:05.469Z,18.30
2018-07-08T06:12:34.875Z,18.40
2018-07-08T06:15:04.232Z,18.05
2018-07-08T06:17:33.425Z,18.25
2018-07-08T06:20:02.769Z,18.05
2018-07-08T06:22:32.022Z,18.15
2018-07-08T06:25:01.470Z,18.20
2018-07-08T06:27:30.622Z,18.11
2018-07-08T06:29:59.933Z,18.11
2018-07-08T06:32:29.186Z,18.38
2018-07-08T06:34:58.453Z,18.62
2018-07-08T06:37:27.673Z,18.70
2018-07-08T06:39:56.849Z,18.51
2018-07-08T06:42:26.005Z,18.83
2018-07-08T06:44:55.201Z,18.87
2018-07-08T06:47:24.443Z,18.94
2018-07-08T06:49:53.789Z,18.63
2018-07-08T06:52:22.992Z,18.49
2018-07-08T06:54:52.237Z,18.84
2018-07-08T06:57:21.392Z,18.54
2018-07-08T06:59:50.635Z,18.78
2018-07-08T07:02:19.889Z,18.72
2018-07-08T07:04:49.068Z,18.27
2018-07-08T07:07:18.193Z,18.61
2018-07-08T07:09:47.397Z,18.62
2018-07-08T07:12:16.652Z,18.93
2018-07-08T07:14:45.866Z,19.28
2018-07-08T07:17:15.121Z,18.96
2018-07-08T07:19:44.537Z,19.09
2018-07-08T07:22:13.681Z,19.20
2018-07-08T07:24:43.017Z,18.94
2018-07-08T07:27:12.151Z,18.83
2018-07-08T07:29:41.408Z,19.01
2018-07-08T07:32:10.727Z,19.29
2018-07-08T07:34:40.010Z,19.47
2018-07-08T07:37:09.210Z,19.85
2018-07-08T07:39:38.559Z,19.60
2018-07-08T07:42:07.929Z,19.87
2018-07-08T07:44:37.232Z,19.35
2018-07-08T07:47:06.493Z,19.50
2018-07-08T07:49:35.739Z,19.77
2018-07-08T07:52:04.909Z,20.12
2018-07-08T07:54:34.110Z,19.88
2018-07-08T07:57:03.464Z,20.52
2018-07-08T07:59:32.696Z,20.53
2018-07-08T08:02:01.997Z,20.56
2018-07-08T08:04:31.249Z,20.54
2018-07-08T08:07:00.512Z,20.54
2018-07-08T08:09:29.845Z,21.09
2018-07-08T08:11:59.086Z,21.48
2018-07-08T08:14:28.249Z,21.76
2018-07-08T08:16:57.498Z,21.78
2018-07-08T08:19:27.024Z,21.17
2018-07-08T08:21:56.407Z,21.91
2018-07-08T08:24:25.649Z,21.98
2018-07-08T08:26:54.912Z,21.77
2018-07-08T08:29:24.090Z,22.08
2018-07-08T08:31:53.508Z,22.26
2018-07-08T08:34:57.229Z,22.53
2018-07-08T08:37:28.403Z,22.89
2018-07-08T08:39:57.600Z,23.22
2018-07-08T08:42:27.039Z,23.26
2018-07-08T08:44:56.941Z,23.39
2018-07-08T08:47:26.870Z,23.65
2018-07-08T08:49:56.252Z,23.09
2018-07-08T08:52:25.565Z,23.32
2018-07-08T08:54:55.269Z,23.34
2018-07-08T08:57:24.488Z,23.52
2018-07-08T08:59:54.078Z,23.66
2018-07-08T09:02:23.360Z,24.03
2018-07-08T09:04:52.647Z,23.76
2018-07-08T09:07:22.442Z,23.95
2018-07-08T09:09:52.135Z,24.32
2018-07-08T09:12:21.780Z,24.61
2018-07-08T09:14:51.009Z,24.40
2018-07-08T09:17:20.259Z,24.66
2018-07-08T09:19:49.514Z,25.33
2018-07-08T09:22:18.858Z,25.43
2018-07-08T09:24:48.040Z,25.59
2018-07-08T09:27:17.405Z,25.84
2018-07-08T09:29:46.783Z,25.77
2018-07-08T09:32:15.911Z,25.68
2018-07-08T09:34:45.237Z,25.13
2018-07-08T09:37:14.729Z,25.36
2018-07-08T09:39:43.914Z,25.94
2018-07-08T09:42:13.049Z,26.21
2018-07-08T09:44:42.288Z,26.62
2018-07-08T09:47:11.590Z,26.63
2018-07-08T09:49:44.660Z,26.14
2018-07-08T09:52:13.873Z,26.35
2018-07-08T09:54:43.102Z,26.42
2018-07-08T09:57:12.481Z,26.45
2018-07-08T09:59:41.677Z,26.64
2018-07-08T10:02:10.901Z,27.06
2018-07-08T10:04:40.263Z,27.25
2018-07-08T10:07:09.376Z,26.79
2018-07-08T10:09:39.137Z,27.35
2018-07-08T10:12:08.399Z,27.45
2018-07-08T10:14:37.792Z,27.55
2018-07-08T10:17:07.016Z,27.12
2018-07-08T10:19:36.267Z,27.93
2018-07-08T10:22:05.850Z,28.26
2018-07-08T10:24:35.151Z,28.34
2018-07-08T10:27:22.545Z,28.17
2018-07-08T10:29:51.794Z,27.82
2018-07-08T10:32:20.952Z,27.89
2018-07-08T10:34:50.196Z,28.24
2018-07-08T10:37:19.654Z,26.76
2018-07-08T10:39:48.887Z,28.00
2018-07-08T10:42:18.076Z,28.13
2018-07-08T10:44:47.269Z,28.36
2018-07-08T10:47:16.456Z,28.66
2018-07-08T10:49:45.685Z,28.88
2018-07-08T10:52:14.817Z,28.63
2018-07-08T10:54:44.138Z,28.60
2018-07-08T10:57:13.382Z,28.48
2018-07-08T10:59:42.656Z,28.16
2018-07-08T11:02:12.148Z,27.81
2018-07-08T11:04:41.389Z,28.33
2018-07-08T11:07:10.576Z,28.53
2018-07-08T11:09:39.890Z,28.73
2018-07-08T11:12:09.206Z,28.81
2018-07-08T11:14:38.517Z,28.10
2018-07-08T11:17:07.800Z,28.05
2018-07-08T11:19:36.949Z,28.05
2018-07-08T11:22:06.394Z,28.94
2018-07-08T11:24:35.750Z,29.03
2018-07-08T11:27:04.953Z,28.91
2018-07-08T11:29:34.129Z,29.21
2018-07-08T11:32:03.362Z,29.56
2018-07-08T11:34:32.529Z,29.52
2018-07-08T11:37:01.716Z,29.18
2018-07-08T11:39:30.864Z,29.66
2018-07-08T11:42:00.044Z,30.00
2018-07-08T11:44:29.226Z,29.99
2018-07-08T11:46:58.452Z,30.05
2018-07-08T11:49:27.602Z,29.37
2018-07-08T11:51:56.949Z,29.53
2018-07-08T11:54:26.152Z,29.16
2018-07-08T11:56:55.459Z,29.73
2018-07-08T11:59:24.592Z,29.41
2018-07-08T12:01:53.999Z,29.25
2018-07-08T12:04:23.208Z,29.28
2018-07-08T12:06:52.413Z,29.55
2018-07-08T12:09:21.557Z,30.26
2018-07-08T12:11:50.848Z,29.76
2018-07-08T12:14:20.337Z,29.49
2018-07-08T12:16:49.536Z,29.66
2018-07-08T12:19:18.653Z,29.21
2018-07-08T12:21:47.864Z,29.35
2018-07-08T12:24:17.343Z,30.09
2018-07-08T12:26:46.661Z,30.42
2018-07-08T12:29:15.950Z,30.15
2018-07-08T12:31:45.231Z,30.12
2018-07-08T12:34:14.452Z,29.95
2018-07-08T12:36:43.651Z,30.28
2018-07-08T12:39:13.828Z,30.82
2018-07-08T12:41:43.345Z,29.87
2018-07-08T12:44:12.499Z,29.77
2018-07-08T12:46:41.681Z,30.23
2018-07-08T12:49:10.901Z,30.40
2018-07-08T12:51:40.126Z,30.83
2018-07-08T12:54:09.256Z,30.59
2018-07-08T12:56:38.784Z,30.27
2018-07-08T12:59:07.941Z,30.48
2018-07-08T13:01:37.111Z,30.55
2018-07-08T13:04:06.524Z,31.30
2018-07-08T13:06:35.749Z,31.59
2018-07-08T13:09:05.705Z,31.24
2018-07-08T13:11:34.954Z,30.79
2018-07-08T13:14:04.280Z,31.35
2018-07-08T13:16:33.582Z,31.00
2018-07-08T13:19:02.868Z,31.65
2018-07-08T13:21:32.160Z,31.64
2018-07-08T13:24:01.759Z,31.04
2018-07-08T13:26:30.949Z,30.19
2018-07-08T13:29:00.252Z,29.82
2018-07-08T13:31:29.666Z,29.88
2018-07-08T13:33:59.484Z,29.81
2018-07-08T13:36:28.633Z,29.61
2018-07-08T13:38:57.847Z,29.38
2018-07-08T13:41:27.044Z,29.20
2018-07-08T13:43:56.213Z,28.82
2018-07-08T13:46:25.441Z,28.59
2018-07-08T13:48:54.645Z,28.64
2018-07-08T13:51:24.067Z,28.68
2018-07-08T13:53:53.397Z,29.14
2018-07-08T13:56:22.605Z,28.98
2018-07-08T13:58:51.861Z,28.85
2018-07-08T14:01:21.142Z,29.12
2018-07-08T14:03:50.444Z,29.53
2018-07-08T14:06:19.613Z,29.40
2018-07-08T14:08:48.938Z,29.50
2018-07-08T14:11:18.221Z,29.85
2018-07-08T14:13:47.383Z,29.79
2018-07-08T14:16:16.799Z,30.23
2018-07-08T14:18:46.246Z,29.77
2018-07-08T14:21:15.377Z,29.11
2018-07-08T14:23:44.749Z,28.55
2018-07-08T14:26:13.933Z,27.88
2018-07-08T14:28:43.393Z,27.91
2018-07-08T14:31:12.630Z,27.63
2018-07-08T14:33:41.872Z,27.56
2018-07-08T14:36:11.207Z,27.84
2018-07-08T14:38:40.446Z,27.95
2018-07-08T14:41:09.622Z,28.10
2018-07-08T14:43:39.365Z,28.30
2018-07-08T14:46:08.585Z,28.24
2018-07-08T14:48:37.963Z,28.30
2018-07-08T14:51:07.648Z,28.15
2018-07-08T14:53:37.097Z,28.20
2018-07-08T14:56:06.352Z,28.83
2018-07-08T14:58:35.691Z,29.00
2018-07-08T15:01:05.061Z,28.99
2018-07-08T15:03:34.280Z,28.79
2018-07-08T15:06:03.725Z,28.76
2018-07-08T15:08:33.001Z,28.68
2018-07-08T15:11:02.369Z,28.90
2018-07-08T15:13:31.785Z,29.11
2018-07-08T15:16:01.110Z,29.20
2018-07-08T15:18:30.483Z,29.11
2018-07-08T15:20:59.711Z,28.97
2018-07-08T15:23:28.919Z,28.32
2018-07-08T15:25:58.236Z,28.20
2018-07-08T15:28:27.538Z,27.88
2018-07-08T15:30:56.960Z,27.66
2018-07-08T15:33:26.270Z,27.84
2018-07-08T15:35:55.513Z,27.55
2018-07-08T15:38:24.703Z,27.58
2018-07-08T15:40:53.950Z,28.08
2018-07-08T15:43:23.869Z,28.22
2018-07-08T15:45:54.004Z,28.63
2018-07-08T15:48:23.617Z,28.39
2018-07-08T15:50:52.749Z,28.14
2018-07-08T15:53:22.069Z,27.93
2018-07-08T15:55:51.321Z,27.89
2018-07-08T15:58:20.525Z,28.07
2018-07-08T16:00:50.346Z,28.29
2018-07-08T16:03:20.885Z,27.99
2018-07-08T16:05:50.457Z,27.95
2018-07-08T16:08:19.963Z,28.15
2018-07-08T16:10:49.649Z,28.26
2018-07-08T16:13:19.266Z,28.45
2018-07-08T16:15:48.700Z,28.27
2018-07-08T16:18:17.960Z,28.66
2018-07-08T16:20:51.802Z,28.58
2018-07-08T16:23:21.023Z,28.61
2018-07-08T16:25:52.817Z,28.40
2018-07-08T16:28:22.739Z,28.25
2018-07-08T16:30:52.343Z,28.28
2018-07-08T16:33:21.962Z,28.19
2018-07-08T16:35:56.769Z,27.88
2018-07-08T16:38:25.889Z,27.83
2018-07-08T16:40:56.969Z,27.78
2018-07-08T16:43:26.268Z,27.99
2018-07-08T16:45:56.138Z,28.13
2018-07-08T16:48:25.757Z,28.45
2018-07-08T16:50:55.064Z,28.69
2018-07-08T16:53:24.347Z,28.64
2018-07-08T16:55:53.537Z,28.56
2018-07-08T16:58:22.652Z,28.18
2018-07-08T17:00:51.839Z,28.57
2018-07-08T17:03:21.009Z,28.73
2018-07-08T17:05:50.224Z,28.92
2018-07-08T17:08:19.408Z,28.73
2018-07-08T17:10:48.593Z,28.71
2018-07-08T17:13:17.764Z,28.64
2018-07-08T17:15:49.405Z,28.39
2018-07-08T17:18:18.584Z,28.40
2018-07-08T17:20:49.041Z,28.60
2018-07-08T17:23:19.348Z,28.51
2018-07-08T17:25:48.681Z,28.47
2018-07-08T17:28:17.933Z,28.44
2018-07-08T17:30:47.194Z,28.03
2018-07-08T17:33:17.281Z,28.22
2018-07-08T17:35:47.104Z,28.31
2018-07-08T17:38:16.405Z,28.45
2018-07-08T17:40:45.693Z,28.11
2018-07-08T17:43:14.981Z,28.46
2018-07-08T17:45:44.421Z,28.41
2018-07-08T17:48:13.847Z,28.36
2018-07-08T17:50:43.713Z,28.42
2018-07-08T17:53:12.992Z,28.26
2018-07-08T17:55:42.316Z,27.95
2018-07-08T17:58:11.596Z,27.83
2018-07-08T18:00:40.804Z,27.93
2018-07-08T18:03:10.513Z,27.71
2018-07-08T18:05:40.239Z,27.51
2018-07-08T18:08:09.689Z,27.55
2018-07-08T18:10:38.881Z,27.50
2018-07-08T18:13:08.512Z,27.51
2018-07-08T18:15:38.369Z,27.12
2018-07-08T18:18:07.573Z,26.86
2018-07-08T18:20:36.781Z,26.88
2018-07-08T18:23:06.055Z,26.88
2018-07-08T18:25:35.249Z,26.63
2018-07-08T18:28:04.453Z,26.88
2018-07-08T18:30:35.265Z,26.66
2018-07-08T18:33:05.018Z,26.45
2018-07-08T18:35:34.273Z,26.49
2018-07-08T18:38:03.481Z,26.55
2018-07-08T18:40:32.680Z,26.55
2018-07-08T18:43:01.856Z,26.34
2018-07-08T18:45:31.033Z,26.19
2018-07-08T18:48:00.229Z,26.12
2018-07-08T18:50:29.380Z,26.15
2018-07-08T18:52:58.607Z,26.34
2018-07-08T18:55:27.773Z,26.41
2018-07-08T18:57:56.962Z,26.31
2018-07-08T19:00:26.249Z,26.34
2018-07-08T19:02:55.457Z,26.40
2018-07-08T19:05:24.684Z,26.35
2018-07-08T19:07:53.901Z,26.07
2018-07-08T19:10:23.113Z,25.98
2018-07-08T19:12:52.344Z,25.98
2018-07-08T19:15:21.665Z,25.91
2018-07-08T19:17:51.429Z,25.79
2018-07-08T19:20:20.592Z,25.78
2018-07-08T19:22:49.879Z,25.82
2018-07-08T19:25:19.056Z,25.69
2018-07-08T19:27:48.326Z,25.52
2018-07-08T19:30:17.667Z,25.65
2018-07-08T19:32:46.827Z,25.52
2018-07-08T19:35:16.148Z,25.45
2018-07-08T19:37:45.313Z,25.34
2018-07-08T19:40:14.508Z,25.27
2018-07-08T19:42:44.636Z,25.10
2018-07-08T19:45:13.838Z,24.99
2018-07-08T19:47:43.057Z,24.91
2018-07-08T19:50:12.301Z,24.80
2018-07-08T19:52:41.577Z,24.74
2018-07-08T19:55:10.868Z,24.76
2018-07-08T19:57:40.147Z,24.73
2018-07-08T20:00:09.653Z,24.66
2018-07-08T20:02:38.800Z,24.58
2018-07-08T20:05:07.994Z,24.43
2018-07-08T20:07:37.235Z,24.33
2018-07-08T20:10:06.644Z,24.15
2018-07-08T20:12:35.812Z,24.07
2018-07-08T20:15:05.051Z,23.96
2018-07-08T20:17:34.550Z,23.84
2018-07-08T20:20:03.825Z,23.80
2018-07-08T20:22:33.024Z,23.72
2018-07-08T20:25:02.336Z,23.65
2018-07-08T20:27:31.566Z,23.58
2018-07-08T20:30:00.801Z,23.47
2018-07-08T20:32:30.061Z,23.47
2018-07-08T20:34:59.571Z,23.38
2018-07-08T20:37:28.721Z,23.30
2018-07-08T20:39:58.098Z,23.19
2018-07-08T20:42:27.353Z,23.11
2018-07-08T20:44:56.581Z,22.98
2018-07-08T20:47:25.847Z,22.88
2018-07-08T20:49:55.083Z,22.90
2018-07-08T20:52:24.235Z,22.84
2018-07-08T20:54:53.480Z,22.72
2018-07-08T20:57:22.729Z,22.51
2018-07-08T20:59:52.916Z,22.57
2018-07-08T21:02:22.267Z,22.49
2018-07-08T21:04:51.456Z,22.32
2018-07-08T21:07:20.669Z,22.33
2018-07-08T21:09:50.045Z,22.14
2018-07-08T21:12:20.180Z,21.96
2018-07-08T21:14:49.412Z,21.89
2018-07-08T21:17:18.796Z,21.87
2018-07-08T21:19:48.029Z,21.79
2018-07-08T21:22:17.345Z,21.62
2018-07-08T21:24:46.721Z,21.41
2018-07-08T21:27:15.918Z,21.07
2018-07-08T21:29:45.285Z,20.71
2018-07-08T21:32:14.953Z,20.93
2018-07-08T21:34:45.533Z,21.02
2018-07-08T21:37:14.785Z,21.02
2018-07-08T21:39:44.558Z,21.07
2018-07-08T21:42:13.766Z,21.29
2018-07-08T21:44:43.234Z,21.39
2018-07-08T21:47:12.372Z,21.21
2018-07-08T21:49:41.633Z,21.16
2018-07-08T21:52:10.892Z,21.12
2018-07-08T21:54:40.103Z,21.21
2018-07-08T21:57:09.252Z,21.03
2018-07-08T21:59:38.538Z,21.08
2018-07-08T22:02:11.853Z,21.08
2018-07-08T22:04:41.121Z,20.99
2018-07-08T22:07:15.484Z,20.95
2018-07-08T22:09:44.743Z,20.98
2018-07-08T22:12:13.947Z,20.98
2018-07-08T22:14:43.094Z,20.69
2018-07-08T22:17:13.263Z,20.49
2018-07-08T22:19:43.457Z,20.40
2018-07-08T22:22:12.573Z,20.47
2018-07-08T22:24:41.856Z,20.69
2018-07-08T22:27:11.058Z,20.61
2018-07-08T22:29:40.288Z,20.59
2018-07-08T22:32:09.457Z,20.53
2018-07-08T22:34:38.706Z,20.58
2018-07-08T22:37:08.018Z,20.30
2018-07-08T22:39:37.312Z,20.37
2018-07-08T22:42:06.547Z,20.50
2018-07-08T22:44:35.772Z,20.64
2018-07-08T22:47:05.109Z,20.65
2018-07-08T22:49:34.282Z,20.64
2018-07-08T22:52:03.505Z,20.66
2018-07-08T22:54:32.782Z,20.50
2018-07-08T22:57:01.991Z,20.37
2018-07-08T22:59:35.816Z,20.12
2018-07-08T23:02:16.204Z,20.00
2018-07-08T23:04:45.426Z,20.14
2018-07-08T23:07:15.004Z,20.19
2018-07-08T23:09:44.269Z,20.10
2018-07-08T23:12:13.554Z,20.13
2018-07-08T23:14:42.909Z,20.22
2018-07-08T23:17:12.141Z,20.07
2018-07-08T23:19:41.379Z,20.02
2018-07-08T23:22:11.199Z,20.02
2018-07-08T23:24:41.369Z,20.06
2018-07-08T23:27:10.701Z,20.04
2018-07-08T23:29:39.988Z,20.01
2018-07-08T23:32:09.190Z,19.97
2018-07-08T23:34:38.368Z,19.84
2018-07-08T23:37:07.573Z,19.77
2018-07-08T23:39:36.813Z,19.62
2018-07-08T23:42:06.068Z,19.50
2018-07-08T23:44:35.298Z,19.47
2018-07-08T23:47:04.616Z,19.42
2018-07-08T23:49:33.928Z,19.34
2018-07-08T23:52:03.220Z,19.35
2018-07-08T23:54:32.480Z,19.40
2018-07-08T23:57:01.653Z,19.33
2018-07-08T23:59:30.830Z,19.22
